createdAt,value
2022-08-17T00:00:49.336Z,2.53
2022-08-17T00:03:28.104Z,2.73
2022-08-17T00:06:14.706Z,3.03
2022-08-17T00:08:53.632Z,2.43
2022-08-17T00:11:28.608Z,2.60
2022-08-17T00:14:10.157Z,2.60
2022-08-17T00:16:56.508Z,2.63
2022-08-17T00:19:29.533Z,2.70
2022-08-17T00:22:32.857Z,2.50
2022-08-17T00:24:54.622Z,2.70
2022-08-17T00:27:26.391Z,2.83
2022-08-17T00:29:58.111Z,2.60
2022-08-17T00:33:13.884Z,2.93
2022-08-17T00:35:27.857Z,3.07
2022-08-17T00:37:59.611Z,3.37
2022-08-17T00:40:44.460Z,3.00
2022-08-17T00:43:21.912Z,2.80
2022-08-17T00:45:54.722Z,2.57
2022-08-17T00:48:30.032Z,2.80
2022-08-17T00:51:19.653Z,3.10
2022-08-17T00:53:56.161Z,2.90
2022-08-17T00:56:38.404Z,2.50
2022-08-17T00:59:11.452Z,2.97
2022-08-17T01:01:44.714Z,2.83
2022-08-17T01:04:20.285Z,2.83
2022-08-17T01:06:53.099Z,2.97
2022-08-17T01:09:25.620Z,3.20
2022-08-17T01:11:57.359Z,3.57
2022-08-17T01:14:29.221Z,3.20
2022-08-17T01:17:01.000Z,3.60
2022-08-17T01:19:35.898Z,2.93
2022-08-17T01:22:14.398Z,3.00
2022-08-17T01:24:52.299Z,3.10
2022-08-17T01:27:24.459Z,3.23
2022-08-17T01:30:02.582Z,3.10
2022-08-17T01:32:34.480Z,3.40
2022-08-17T01:35:07.662Z,3.20
2022-08-17T01:37:41.686Z,2.73
2022-08-17T01:40:35.209Z,3.03
2022-08-17T01:43:24.073Z,3.53
2022-08-17T01:46:03.457Z,3.43
2022-08-17T01:48:38.808Z,3.40
2022-08-17T01:51:10.566Z,3.00
2022-08-17T01:53:47.599Z,3.40
2022-08-17T01:56:23.023Z,3.10
2022-08-17T01:58:55.399Z,3.00
2022-08-17T02:01:29.819Z,3.27
2022-08-17T02:04:02.172Z,3.23
2022-08-17T02:06:53.715Z,3.50
2022-08-17T02:09:29.871Z,3.33
2022-08-17T02:12:05.776Z,3.33
2022-08-17T02:14:55.635Z,2.97
2022-08-17T02:17:27.422Z,3.73
2022-08-17T02:19:59.226Z,3.20
2022-08-17T02:22:31.042Z,3.37
2022-08-17T02:25:06.027Z,3.43
2022-08-17T02:27:39.392Z,3.63
2022-08-17T02:31:01.410Z,3.70
2022-08-17T02:33:09.226Z,3.40
2022-08-17T02:35:42.898Z,3.83
2022-08-17T02:38:14.732Z,4.80
2022-08-17T02:40:47.550Z,4.47
2022-08-17T02:43:20.944Z,3.73
2022-08-17T02:45:52.721Z,3.57
2022-08-17T02:48:30.787Z,3.90
2022-08-17T02:51:03.723Z,4.30
2022-08-17T02:53:36.243Z,3.73
2022-08-17T02:56:08.079Z,3.90
2022-08-17T02:58:39.885Z,3.53
2022-08-17T03:01:12.765Z,3.73
2022-08-17T03:03:45.190Z,3.73
2022-08-17T03:06:16.955Z,4.03
2022-08-17T03:08:48.716Z,3.97
2022-08-17T03:11:20.661Z,3.63
2022-08-17T03:13:52.381Z,3.30
2022-08-17T03:16:24.123Z,3.50
2022-08-17T03:18:56.073Z,4.20
2022-08-17T03:21:28.194Z,4.00
2022-08-17T03:23:59.913Z,3.63
2022-08-17T03:26:32.287Z,4.23
2022-08-17T03:29:04.295Z,3.57
2022-08-17T03:31:37.201Z,3.17
2022-08-17T03:34:09.029Z,3.60
2022-08-17T03:36:40.874Z,3.80
2022-08-17T03:39:12.641Z,3.87
2022-08-17T03:41:44.395Z,4.17
2022-08-17T03:44:16.153Z,3.97
2022-08-17T03:47:06.720Z,3.93
2022-08-17T03:49:57.352Z,3.60
2022-08-17T03:52:47.769Z,3.90
2022-08-17T03:55:42.227Z,4.03
2022-08-17T03:58:14.022Z,4.00
2022-08-17T04:00:46.544Z,4.00
2022-08-17T04:03:18.402Z,4.07
2022-08-17T04:05:50.312Z,4.03
2022-08-17T04:08:22.069Z,4.30
2022-08-17T04:10:55.573Z,4.40
2022-08-17T04:13:27.705Z,4.73
2022-08-17T04:15:59.964Z,4.77
2022-08-17T04:18:31.772Z,3.80
2022-08-17T04:21:07.117Z,5.00
2022-08-17T04:23:38.903Z,5.03
2022-08-17T04:26:10.885Z,4.30
2022-08-17T04:29:02.641Z,4.30
2022-08-17T04:31:34.472Z,4.30
2022-08-17T04:34:06.666Z,4.73
2022-08-17T04:36:38.831Z,4.77
2022-08-17T04:39:11.122Z,4.90
2022-08-17T04:42:01.673Z,4.73
2022-08-17T04:44:37.545Z,5.03
2022-08-17T04:47:12.961Z,4.47
2022-08-17T04:49:44.988Z,4.80
2022-08-17T04:52:29.728Z,5.53
2022-08-17T04:55:08.995Z,4.80
2022-08-17T04:57:45.071Z,4.10
2022-08-17T05:00:17.263Z,4.40
2022-08-17T05:02:50.926Z,4.50
2022-08-17T05:05:26.762Z,4.20
2022-08-17T05:08:01.156Z,4.00
2022-08-17T05:10:36.951Z,17.80
2022-08-17T05:13:16.085Z,6.90
2022-08-17T05:15:50.291Z,5.50
2022-08-17T05:18:22.207Z,4.27
2022-08-17T05:20:56.862Z,3.80
2022-08-17T05:23:35.546Z,4.47
2022-08-17T05:26:24.791Z,4.17
2022-08-17T05:29:00.566Z,3.90
2022-08-17T05:31:34.717Z,3.40
2022-08-17T05:34:07.236Z,4.13
2022-08-17T05:36:44.066Z,3.80
2022-08-17T05:39:17.433Z,3.83
2022-08-17T05:41:49.361Z,4.77
2022-08-17T05:44:21.134Z,4.10
2022-08-17T05:46:54.324Z,3.57
2022-08-17T05:49:28.577Z,3.87
2022-08-17T05:52:19.822Z,3.97
2022-08-17T05:55:13.225Z,3.83
2022-08-17T05:58:27.160Z,4.40
2022-08-17T06:01:42.571Z,3.90
2022-08-17T06:04:17.055Z,3.60
2022-08-17T06:06:57.697Z,4.37
2022-08-17T06:09:35.126Z,3.67
2022-08-17T06:12:27.186Z,4.03
2022-08-17T06:15:19.473Z,3.80
2022-08-17T06:17:59.343Z,3.53
2022-08-17T06:20:42.611Z,3.80
2022-08-17T06:23:23.996Z,3.43
2022-08-17T06:26:03.719Z,3.33
2022-08-17T06:28:52.800Z,3.00
2022-08-17T06:31:33.421Z,3.53
2022-08-17T06:34:10.521Z,3.40
2022-08-17T06:37:05.447Z,3.60
2022-08-17T06:39:53.867Z,3.30
2022-08-17T06:42:54.929Z,3.37
2022-08-17T06:45:41.796Z,2.87
2022-08-17T06:48:25.143Z,3.13
2022-08-17T06:51:24.547Z,3.40
2022-08-17T06:54:06.556Z,3.43
2022-08-17T06:57:00.748Z,3.07
2022-08-17T06:59:55.533Z,3.40
2022-08-17T07:02:52.000Z,3.40
2022-08-17T07:05:47.438Z,3.60
2022-08-17T07:08:19.208Z,3.50
2022-08-17T07:10:56.393Z,3.40
2022-08-17T07:13:53.982Z,3.17
2022-08-17T07:16:32.478Z,3.23
2022-08-17T07:19:06.006Z,3.43
2022-08-17T07:21:59.722Z,2.93
2022-08-17T07:24:41.901Z,3.43
2022-08-17T07:27:22.256Z,3.10
2022-08-17T07:30:16.412Z,3.17
2022-08-17T07:32:58.203Z,2.87
2022-08-17T07:35:37.712Z,3.00
2022-08-17T07:38:26.816Z,2.77
2022-08-17T07:41:05.126Z,2.63
2022-08-17T07:43:40.015Z,2.67
2022-08-17T07:46:36.220Z,2.70
2022-08-17T07:49:11.001Z,2.27
2022-08-17T07:51:42.684Z,2.50
2022-08-17T07:54:22.506Z,2.27
2022-08-17T07:57:08.348Z,2.60
2022-08-17T07:59:43.486Z,2.00
2022-08-17T08:02:28.947Z,1.90
2022-08-17T08:05:12.934Z,1.88
2022-08-17T08:07:47.913Z,2.35
2022-08-17T08:10:42.536Z,1.60
2022-08-17T08:13:25.917Z,1.80
2022-08-17T08:16:24.410Z,1.67
2022-08-17T08:19:02.078Z,1.83
2022-08-17T08:21:40.997Z,1.90
2022-08-17T08:24:44.859Z,2.13
2022-08-17T08:27:41.829Z,1.50
2022-08-17T08:30:21.410Z,1.60
2022-08-17T08:33:17.312Z,2.10
2022-08-17T08:37:02.132Z,1.95
2022-08-17T08:39:19.315Z,1.70
2022-08-17T08:41:58.848Z,1.80
2022-08-17T08:45:03.579Z,2.10
2022-08-17T08:47:53.960Z,1.90
2022-08-17T08:50:40.351Z,1.60
2022-08-17T08:53:19.045Z,1.50
2022-08-17T08:56:02.830Z,1.75
2022-08-17T08:58:43.553Z,1.60
2022-08-17T09:01:49.690Z,1.80
2022-08-17T09:05:17.040Z,1.85
2022-08-17T09:08:07.610Z,2.15
2022-08-17T09:11:03.746Z,1.90
2022-08-17T09:13:38.214Z,1.80
2022-08-17T09:16:16.456Z,1.63
2022-08-17T09:18:59.923Z,1.60
2022-08-17T09:21:54.845Z,1.67
2022-08-17T09:24:35.220Z,1.95
2022-08-17T09:27:21.890Z,1.50
2022-08-17T09:30:00.027Z,1.50
2022-08-17T09:32:40.917Z,1.77
2022-08-17T09:35:19.842Z,1.60
2022-08-17T09:38:14.721Z,1.58
2022-08-17T09:41:07.862Z,1.48
2022-08-17T09:44:23.097Z,2.00
2022-08-17T09:47:12.951Z,1.63
2022-08-17T09:50:11.546Z,1.33
2022-08-17T09:52:43.670Z,1.70
2022-08-17T09:55:26.473Z,1.67
2022-08-17T09:58:07.377Z,1.25
2022-08-17T10:00:53.076Z,1.50
2022-08-17T10:03:34.335Z,1.60
2022-08-17T10:06:08.659Z,1.35
2022-08-17T10:08:54.008Z,1.75
2022-08-17T10:11:52.914Z,1.30
2022-08-17T10:14:44.140Z,1.40
2022-08-17T10:17:35.280Z,1.40
2022-08-17T10:20:30.738Z,2.50
2022-08-17T10:23:30.369Z,2.47
2022-08-17T10:26:24.945Z,1.40
2022-08-17T10:29:12.444Z,1.40
2022-08-17T10:31:55.620Z,1.52
2022-08-17T10:34:50.597Z,1.60
2022-08-17T10:37:40.544Z,1.73
2022-08-17T10:40:35.530Z,2.42
2022-08-17T10:43:38.402Z,2.55
2022-08-17T10:46:31.371Z,1.75
2022-08-17T10:49:14.957Z,1.83
2022-08-17T10:51:59.084Z,1.40
2022-08-17T10:54:48.838Z,1.38
2022-08-17T10:57:29.479Z,2.80
2022-08-17T11:00:04.386Z,1.92
2022-08-17T11:02:54.184Z,2.47
2022-08-17T11:05:50.332Z,1.80
2022-08-17T11:08:44.901Z,1.50
2022-08-17T11:11:50.890Z,1.75
2022-08-17T11:14:58.059Z,1.85
2022-08-17T11:17:53.404Z,2.40
2022-08-17T11:20:38.645Z,1.40
2022-08-17T11:23:31.172Z,1.92
2022-08-17T11:26:08.526Z,1.50
2022-08-17T11:28:52.612Z,1.30
2022-08-17T11:31:41.385Z,1.20
2022-08-17T11:34:23.093Z,2.13
2022-08-17T11:37:09.962Z,1.60
2022-08-17T11:40:06.408Z,1.40
2022-08-17T11:43:04.203Z,1.90
2022-08-17T11:45:39.166Z,1.50
2022-08-17T11:48:54.464Z,1.50
2022-08-17T11:52:01.479Z,1.35
2022-08-17T11:54:36.417Z,1.40
2022-08-17T11:57:26.653Z,1.63
2022-08-17T12:00:28.556Z,1.50
2022-08-17T12:03:32.305Z,2.63
2022-08-17T12:06:24.683Z,1.50
2022-08-17T12:09:17.970Z,1.70
2022-08-17T12:12:13.409Z,1.42
2022-08-17T12:15:12.931Z,2.28
2022-08-17T12:17:53.495Z,2.50
2022-08-17T12:20:37.894Z,1.60
2022-08-17T12:23:41.705Z,1.35
2022-08-17T12:26:21.962Z,1.38
2022-08-17T12:29:07.204Z,1.80
2022-08-17T12:31:44.830Z,2.88
2022-08-17T12:34:21.378Z,1.40
2022-08-17T12:36:59.809Z,1.20
2022-08-17T12:39:34.067Z,2.58
2022-08-17T12:42:21.140Z,1.63
2022-08-17T12:44:52.969Z,2.15
2022-08-17T12:47:25.377Z,1.30
2022-08-17T12:50:28.833Z,1.70
2022-08-17T12:53:02.787Z,2.50
2022-08-17T12:55:37.321Z,1.90
2022-08-17T12:58:14.505Z,1.92
2022-08-17T13:00:56.781Z,2.10
2022-08-17T13:03:36.299Z,2.25
2022-08-17T13:06:12.065Z,1.48
2022-08-17T13:08:48.002Z,1.90
2022-08-17T13:11:24.834Z,1.50
2022-08-17T13:14:09.434Z,2.53
2022-08-17T13:17:00.720Z,2.35
2022-08-17T13:19:40.336Z,1.60
2022-08-17T13:22:13.131Z,1.50
2022-08-17T13:24:55.509Z,1.17
2022-08-17T13:27:28.811Z,1.50
2022-08-17T13:30:05.498Z,1.80
2022-08-17T13:32:44.023Z,2.70
2022-08-17T13:35:43.569Z,1.35
2022-08-17T13:38:47.221Z,1.40
2022-08-17T13:41:34.593Z,1.02
2022-08-17T13:44:34.503Z,1.90
2022-08-17T13:47:17.064Z,2.28
2022-08-17T13:49:49.638Z,3.63
2022-08-17T13:52:43.085Z,1.50
2022-08-17T13:55:21.894Z,1.73
2022-08-17T13:58:06.571Z,2.55
2022-08-17T14:00:40.322Z,2.10
2022-08-17T14:03:12.068Z,2.40
2022-08-17T14:05:45.905Z,1.45
2022-08-17T14:08:19.833Z,5.40
2022-08-17T14:10:58.087Z,2.42
2022-08-17T14:13:29.870Z,1.42
2022-08-17T14:16:02.013Z,1.45
2022-08-17T14:18:55.588Z,1.67
2022-08-17T14:21:25.514Z,2.60
2022-08-17T14:23:58.189Z,2.40
2022-08-17T14:26:29.987Z,3.22
2022-08-17T14:29:02.008Z,1.80
2022-08-17T14:31:37.529Z,1.92
2022-08-17T14:34:10.598Z,1.45
2022-08-17T14:36:48.314Z,1.40
2022-08-17T14:39:20.960Z,4.97
2022-08-17T14:41:53.042Z,3.03
2022-08-17T14:44:24.947Z,1.60
2022-08-17T14:46:56.715Z,1.90
2022-08-17T14:49:31.329Z,1.40
2022-08-17T14:52:03.352Z,1.30
2022-08-17T14:54:35.157Z,3.38
2022-08-17T14:57:24.712Z,3.30
2022-08-17T14:59:59.689Z,2.05
2022-08-17T15:02:42.682Z,2.00
2022-08-17T15:05:16.456Z,1.48
2022-08-17T15:07:48.266Z,2.85
2022-08-17T15:10:20.878Z,1.30
2022-08-17T15:12:52.728Z,1.60
2022-08-17T15:15:24.634Z,1.60
2022-08-17T15:17:57.112Z,1.50
2022-08-17T15:20:30.059Z,1.35
2022-08-17T15:23:01.984Z,2.88
2022-08-17T15:25:33.997Z,1.77
2022-08-17T15:28:06.368Z,2.72
2022-08-17T15:30:43.026Z,1.85
2022-08-17T15:33:17.486Z,1.67
2022-08-17T15:35:52.133Z,1.40
2022-08-17T15:38:23.890Z,1.10
2022-08-17T15:40:58.342Z,1.75
2022-08-17T15:43:34.603Z,1.40
2022-08-17T15:46:12.299Z,1.83
2022-08-17T15:48:46.547Z,1.33
2022-08-17T15:51:24.246Z,1.90
2022-08-17T15:54:04.566Z,1.60
2022-08-17T15:56:50.768Z,3.58
2022-08-17T15:59:22.529Z,1.85
2022-08-17T16:03:14.238Z,3.05
2022-08-17T16:04:50.687Z,2.15
2022-08-17T16:07:26.718Z,1.58
2022-08-17T16:09:58.790Z,2.70
2022-08-17T16:12:30.572Z,2.53
2022-08-17T16:15:04.169Z,1.52
2022-08-17T16:17:39.883Z,1.50
2022-08-17T16:20:20.281Z,1.30
2022-08-17T16:22:54.576Z,1.40
2022-08-17T16:25:49.205Z,1.60
2022-08-17T16:28:35.874Z,1.70
2022-08-17T16:31:08.870Z,1.50
2022-08-17T16:33:41.916Z,2.00
2022-08-17T16:36:13.760Z,1.55
2022-08-17T16:38:46.622Z,1.45
2022-08-17T16:41:38.440Z,1.48
2022-08-17T16:44:20.579Z,1.70
2022-08-17T16:46:52.371Z,1.50
2022-08-17T16:49:35.574Z,1.30
2022-08-17T16:52:10.804Z,1.58
2022-08-17T16:54:44.369Z,1.50
2022-08-17T16:57:17.531Z,1.63
2022-08-17T16:59:51.426Z,1.50
2022-08-17T17:02:34.893Z,1.65
2022-08-17T17:05:32.935Z,2.10
2022-08-17T17:08:12.878Z,1.52
2022-08-17T17:10:55.728Z,1.50
2022-08-17T17:13:35.611Z,1.63
2022-08-17T17:16:28.495Z,1.20
2022-08-17T17:19:17.778Z,1.48
2022-08-17T17:22:16.203Z,1.65
2022-08-17T17:24:57.164Z,1.63
2022-08-17T17:27:48.182Z,1.80
2022-08-17T17:30:43.305Z,1.48
2022-08-17T17:33:23.357Z,1.50
2022-08-17T17:36:06.995Z,1.70
2022-08-17T17:38:45.641Z,2.00
2022-08-17T17:41:29.964Z,2.60
2022-08-17T17:44:11.682Z,2.70
2022-08-17T17:46:55.142Z,2.10
2022-08-17T17:49:30.839Z,1.90
2022-08-17T17:52:19.415Z,1.73
2022-08-17T17:55:15.554Z,1.83
2022-08-17T17:58:12.669Z,2.92
2022-08-17T18:01:18.352Z,2.63
2022-08-17T18:04:14.271Z,2.40
2022-08-17T18:07:28.830Z,2.28
2022-08-17T18:10:13.709Z,2.38
2022-08-17T18:12:57.800Z,2.25
2022-08-17T18:15:36.239Z,2.30
2022-08-17T18:18:13.848Z,2.28
2022-08-17T18:20:53.829Z,2.10
2022-08-17T18:23:28.780Z,2.10
2022-08-17T18:26:02.079Z,2.17
2022-08-17T18:28:41.080Z,2.50
2022-08-17T18:31:17.606Z,2.70
2022-08-17T18:33:54.666Z,2.60
2022-08-17T18:36:30.225Z,2.20
2022-08-17T18:39:28.353Z,2.30
2022-08-17T18:42:03.230Z,2.10
2022-08-17T18:44:40.681Z,2.53
2022-08-17T18:47:19.882Z,2.50
2022-08-17T18:50:19.470Z,2.28
2022-08-17T18:52:51.506Z,2.28
2022-08-17T18:55:31.268Z,2.40
2022-08-17T18:58:21.008Z,2.40
2022-08-17T19:00:52.779Z,3.10
2022-08-17T19:03:26.207Z,2.50
2022-08-17T19:06:21.967Z,2.20
2022-08-17T19:08:53.784Z,2.80
2022-08-17T19:11:35.611Z,2.33
2022-08-17T19:14:11.967Z,2.70
2022-08-17T19:17:25.454Z,2.72
2022-08-17T19:20:14.918Z,2.87
2022-08-17T19:23:02.352Z,2.60
2022-08-17T19:25:38.913Z,2.80
2022-08-17T19:28:22.977Z,2.70
2022-08-17T19:31:01.909Z,2.47
2022-08-17T19:33:34.666Z,2.70
2022-08-17T19:36:11.105Z,2.63
2022-08-17T19:39:04.649Z,2.73
2022-08-17T19:41:54.136Z,3.33
2022-08-17T19:44:52.670Z,2.97
2022-08-17T19:47:53.654Z,3.20
2022-08-17T19:50:41.527Z,3.00
2022-08-17T19:54:01.711Z,2.87
2022-08-17T19:56:36.513Z,2.50
2022-08-17T19:59:36.144Z,2.60
2022-08-17T20:02:37.043Z,3.33
2022-08-17T20:05:15.912Z,3.20
2022-08-17T20:08:08.612Z,3.40
2022-08-17T20:10:54.657Z,2.73
2022-08-17T20:13:51.463Z,3.37
2022-08-17T20:16:24.648Z,2.77
2022-08-17T20:19:12.649Z,2.80
2022-08-17T20:22:03.554Z,3.00
2022-08-17T20:24:53.757Z,3.23
2022-08-17T20:27:34.113Z,3.73
2022-08-17T20:30:09.193Z,3.90
2022-08-17T20:32:52.666Z,3.40
2022-08-17T20:35:31.613Z,3.10
2022-08-17T20:38:05.591Z,3.70
2022-08-17T20:40:57.420Z,2.80
2022-08-17T20:43:35.416Z,3.17
2022-08-17T20:46:34.304Z,2.77
2022-08-17T20:49:08.758Z,3.10
2022-08-17T20:51:46.257Z,3.53
2022-08-17T20:54:55.157Z,3.30
2022-08-17T20:57:32.793Z,2.97
2022-08-17T21:00:23.748Z,2.87
2022-08-17T21:03:23.561Z,2.97
2022-08-17T21:05:59.806Z,3.13
2022-08-17T21:08:59.110Z,3.40
2022-08-17T21:12:03.262Z,2.97
2022-08-17T21:15:03.640Z,3.00
2022-08-17T21:18:11.868Z,3.33
2022-08-17T21:20:57.293Z,3.50
2022-08-17T21:23:50.346Z,3.20
2022-08-17T21:26:50.618Z,3.43
2022-08-17T21:29:30.859Z,2.97
2022-08-17T21:32:05.458Z,3.00
2022-08-17T21:35:06.320Z,3.10
2022-08-17T21:37:53.165Z,3.27
2022-08-17T21:40:29.083Z,3.10
2022-08-17T21:43:15.725Z,3.20
2022-08-17T21:45:56.645Z,3.10
2022-08-17T21:48:32.335Z,3.30
2022-08-17T21:51:19.430Z,2.90
2022-08-17T21:54:02.814Z,2.90
2022-08-17T21:56:39.670Z,2.97
2022-08-17T21:59:32.946Z,3.57
2022-08-17T22:02:16.754Z,2.73
2022-08-17T22:05:01.950Z,2.77
2022-08-17T22:07:43.892Z,3.10
2022-08-17T22:10:35.202Z,2.67
2022-08-17T22:13:16.880Z,2.90
2022-08-17T22:16:28.041Z,3.13
2022-08-17T22:19:01.056Z,2.83
2022-08-17T22:21:32.838Z,3.00
2022-08-17T22:24:15.403Z,3.00
2022-08-17T22:27:07.721Z,3.23
2022-08-17T22:29:57.665Z,3.20
2022-08-17T22:32:31.228Z,3.20
2022-08-17T22:35:25.436Z,3.30
2022-08-17T22:37:57.597Z,3.23
2022-08-17T22:40:34.440Z,3.40
2022-08-17T22:43:11.982Z,3.23
2022-08-17T22:45:51.462Z,3.33
2022-08-17T22:48:27.461Z,3.03
2022-08-17T22:51:12.252Z,3.03
2022-08-17T22:54:21.544Z,3.27
2022-08-17T22:57:21.996Z,3.30
2022-08-17T22:59:55.778Z,3.03
2022-08-17T23:02:31.489Z,2.97
2022-08-17T23:05:10.095Z,2.83
2022-08-17T23:07:43.803Z,2.70
2022-08-17T23:10:15.682Z,2.80
2022-08-17T23:12:48.353Z,3.13
2022-08-17T23:15:20.238Z,2.80
2022-08-17T23:17:52.183Z,3.33
2022-08-17T23:20:24.138Z,2.97
2022-08-17T23:22:55.888Z,3.40
2022-08-17T23:25:30.488Z,3.10
2022-08-17T23:28:04.984Z,3.07
2022-08-17T23:30:41.272Z,3.20
2022-08-17T23:33:29.833Z,2.90
2022-08-17T23:36:02.226Z,2.73
2022-08-17T23:38:34.280Z,2.63
2022-08-17T23:41:11.934Z,3.37
2022-08-17T23:43:47.667Z,3.10
2022-08-17T23:46:22.413Z,3.10
2022-08-17T23:48:54.252Z,2.90
2022-08-17T23:51:30.941Z,2.60
2022-08-17T23:54:20.259Z,2.93
2022-08-17T23:56:52.804Z,3.20
2022-08-17T23:59:24.542Z,3.10
